Gustavus Airport Gustavus US
ICAO: PAGS
IATA:
Category: Medium
Scheduled Services:

Elevation: 35 ft
TransAlt. 18000 ft.

Airport Communications:
AWOS 3:125.9
ANCHORAGE CNTR:133.2
CTAF:122.5
JUNEAU RDO:122.65

PAGS Zoom In..

Runways:

(A) RW 02 length 3146 ft width 60 ft
---- / hdg 21

(B) RW 11 length 6721 ft width 150 ft
---- / hdg 115

(C) RW 20 length 3146 ft width 60 ft
---- / hdg 201

(D) RW 29 length 6721 ft width 150 ft
---- / hdg 295

Location; PAGS
Day. 25 / Time. 11.56 Zulu
* Altimeter: 30.34
* Temperature: 06° c. 42.8°f.
* Wind from: 130° Speed 08 kn.
Dewpoint: 03° c.
Visibility: 10 Statute Miles.
Clouds: Scattered 3800 ft.
Clouds: Broken 4900 ft.
Clouds: Overcast 5500 ft.
Conditions: Light Rain.

PAGS 251156Z AUTO 13008KT 10SM -RA SCT038 BKN049 OVC055 06/03 A3034 RMK AO2 RAB44 SLP274 P0000 60000 70006 T00560033 10056 20039 51001


Wind From 130°
Speed 08 kn.

  YouTube Music Video
 
jpsmedia.com for Web Design  worldairports.se 2018   terms of use